sensor_id;sensor_type;location;lat;lon;timestamp;temperature;humidity
41447;DHT22;27185;52.040;4.490;2022-10-30T00:01:21;17.30;99.90
41447;DHT22;27185;52.040;4.490;2022-10-30T00:04:07;17.20;99.90
41447;DHT22;27185;52.040;4.490;2022-10-30T00:06:53;17.20;99.90
41447;DHT22;27185;52.040;4.490;2022-10-30T00:09:38;17.10;99.90
41447;DHT22;27185;52.040;4.490;2022-10-30T00:12:24;17.10;99.90
41447;DHT22;27185;52.040;4.490;2022-10-30T00:15:10;17.00;99.90
41447;DHT22;27185;52.040;4.490;2022-10-30T00:17:56;17.00;99.90
41447;DHT22;27185;52.040;4.490;2022-10-30T00:20:42;16.90;99.90
41447;DHT22;27185;52.040;4.490;2022-10-30T00:23:28;16.90;99.90
41447;DHT22;27185;52.040;4.490;2022-10-30T00:26:14;16.80;99.90
41447;DHT22;27185;52.040;4.490;2022-10-30T00:29:00;16.70;99.90
41447;DHT22;27185;52.040;4.490;2022-10-30T00:31:45;16.70;99.90
41447;DHT22;27185;52.040;4.490;2022-10-30T00:34:31;16.70;99.90
41447;DHT22;27185;52.040;4.490;2022-10-30T00:37:16;16.60;99.90
41447;DHT22;27185;52.040;4.490;2022-10-30T00:40:03;16.60;99.90
41447;DHT22;27185;52.040;4.490;2022-10-30T00:42:49;16.50;99.90
41447;DHT22;27185;52.040;4.490;2022-10-30T00:45:34;16.40;99.90
41447;DHT22;27185;52.040;4.490;2022-10-30T00:48:23;16.40;99.90
41447;DHT22;27185;52.040;4.490;2022-10-30T00:51:10;16.40;99.90
41447;DHT22;27185;52.040;4.490;2022-10-30T00:53:58;16.40;99.90
41447;DHT22;27185;52.040;4.490;2022-10-30T00:56:46;16.40;99.90
41447;DHT22;27185;52.040;4.490;2022-10-30T00:59:34;16.40;99.90
41447;DHT22;27185;52.040;4.490;2022-10-30T01:02:21;16.40;99.90
41447;DHT22;27185;52.040;4.490;2022-10-30T01:05:07;16.40;99.90
41447;DHT22;27185;52.040;4.490;2022-10-30T01:07:56;16.40;99.90
41447;DHT22;27185;52.040;4.490;2022-10-30T01:10:42;16.40;99.90
41447;DHT22;27185;52.040;4.490;2022-10-30T01:13:28;16.40;99.90
41447;DHT22;27185;52.040;4.490;2022-10-30T01:16:46;16.40;99.90
41447;DHT22;27185;52.040;4.490;2022-10-30T01:28:41;16.30;99.90
41447;DHT22;27185;52.040;4.490;2022-10-30T01:31:58;16.30;99.90
41447;DHT22;27185;52.040;4.490;2022-10-30T01:40:57;16.20;99.90
41447;DHT22;27185;52.040;4.490;2022-10-30T01:43:44;16.20;99.90
41447;DHT22;27185;52.040;4.490;2022-10-30T01:50:02;16.10;99.90
41447;DHT22;27185;52.040;4.490;2022-10-30T01:55:52;16.10;99.90
41447;DHT22;27185;52.040;4.490;2022-10-30T02:01:56;16.00;99.90
41447;DHT22;27185;52.040;4.490;2022-10-30T02:04:43;16.00;99.90
41447;DHT22;27185;52.040;4.490;2022-10-30T02:07:28;16.00;99.90
41447;DHT22;27185;52.040;4.490;2022-10-30T02:10:14;16.00;99.90
41447;DHT22;27185;52.040;4.490;2022-10-30T02:13:00;16.00;99.90
41447;DHT22;27185;52.040;4.490;2022-10-30T02:15:47;16.00;99.90
41447;DHT22;27185;52.040;4.490;2022-10-30T02:18:33;15.90;99.90
41447;DHT22;27185;52.040;4.490;2022-10-30T02:21:19;15.90;99.90
41447;DHT22;27185;52.040;4.490;2022-10-30T02:24:06;15.90;99.90
41447;DHT22;27185;52.040;4.490;2022-10-30T02:26:52;15.80;99.90
41447;DHT22;27185;52.040;4.490;2022-10-30T02:29:37;15.80;99.90
41447;DHT22;27185;52.040;4.490;2022-10-30T02:32:23;15.80;99.90
41447;DHT22;27185;52.040;4.490;2022-10-30T02:35:09;15.70;99.90
41447;DHT22;27185;52.040;4.490;2022-10-30T02:37:54;15.70;99.90
41447;DHT22;27185;52.040;4.490;2022-10-30T02:40:40;15.70;99.90
41447;DHT22;27185;52.040;4.490;2022-10-30T02:43:26;15.60;99.90
41447;DHT22;27185;52.040;4.490;2022-10-30T02:46:11;15.60;99.90
41447;DHT22;27185;52.040;4.490;2022-10-30T02:48:57;15.60;99.90
41447;DHT22;27185;52.040;4.490;2022-10-30T02:51:42;15.60;99.90
41447;DHT22;27185;52.040;4.490;2022-10-30T02:54:28;15.60;99.90
41447;DHT22;27185;52.040;4.490;2022-10-30T02:57:14;15.60;99.90
41447;DHT22;27185;52.040;4.490;2022-10-30T02:59:59;15.60;99.90
41447;DHT22;27185;52.040;4.490;2022-10-30T03:02:45;15.60;99.90
41447;DHT22;27185;52.040;4.490;2022-10-30T03:05:31;15.50;99.90
41447;DHT22;27185;52.040;4.490;2022-10-30T03:08:17;15.50;99.90
41447;DHT22;27185;52.040;4.490;2022-10-30T03:11:06;15.50;99.90
41447;DHT22;27185;52.040;4.490;2022-10-30T03:13:53;15.40;99.90
41447;DHT22;27185;52.040;4.490;2022-10-30T03:16:39;15.40;99.90
41447;DHT22;27185;52.040;4.490;2022-10-30T03:19:24;15.30;99.90
41447;DHT22;27185;52.040;4.490;2022-10-30T03:22:13;15.30;99.90
41447;DHT22;27185;52.040;4.490;2022-10-30T03:24:59;15.20;99.90
41447;DHT22;27185;52.040;4.490;2022-10-30T03:27:44;15.20;99.90
41447;DHT22;27185;52.040;4.490;2022-10-30T03:30:33;15.20;99.90
41447;DHT22;27185;52.040;4.490;2022-10-30T03:33:18;15.10;99.90
41447;DHT22;27185;52.040;4.490;2022-10-30T03:36:05;15.10;99.90
41447;DHT22;27185;52.040;4.490;2022-10-30T03:38:51;15.10;99.90
41447;DHT22;27185;52.040;4.490;2022-10-30T03:41:37;15.10;99.90
41447;DHT22;27185;52.040;4.490;2022-10-30T03:44:22;15.00;99.90
41447;DHT22;27185;52.040;4.490;2022-10-30T03:47:08;15.00;99.90
41447;DHT22;27185;52.040;4.490;2022-10-30T03:49:54;15.00;99.90
41447;DHT22;27185;52.040;4.490;2022-10-30T03:52:39;14.90;99.90
41447;DHT22;27185;52.040;4.490;2022-10-30T03:55:25;14.90;99.90
41447;DHT22;27185;52.040;4.490;2022-10-30T03:58:11;14.90;99.90
41447;DHT22;27185;52.040;4.490;2022-10-30T04:01:05;14.90;99.90
41447;DHT22;27185;52.040;4.490;2022-10-30T04:03:51;14.90;99.90
41447;DHT22;27185;52.040;4.490;2022-10-30T04:06:37;14.90;99.90
41447;DHT22;27185;52.040;4.490;2022-10-30T04:09:23;14.90;99.90
41447;DHT22;27185;52.040;4.490;2022-10-30T04:12:08;14.80;99.90
41447;DHT22;27185;52.040;4.490;2022-10-30T04:14:54;14.90;99.90
41447;DHT22;27185;52.040;4.490;2022-10-30T04:17:48;14.80;99.90
41447;DHT22;27185;52.040;4.490;2022-10-30T04:20:34;14.80;99.90
41447;DHT22;27185;52.040;4.490;2022-10-30T04:23:20;14.80;99.90
41447;DHT22;27185;52.040;4.490;2022-10-30T04:26:09;14.80;99.90
41447;DHT22;27185;52.040;4.490;2022-10-30T04:28:55;14.80;99.90
41447;DHT22;27185;52.040;4.490;2022-10-30T04:31:40;14.70;99.90
41447;DHT22;27185;52.040;4.490;2022-10-30T04:34:26;14.70;99.90
41447;DHT22;27185;52.040;4.490;2022-10-30T04:37:12;14.70;99.90
41447;DHT22;27185;52.040;4.490;2022-10-30T04:39:57;14.60;99.90
41447;DHT22;27185;52.040;4.490;2022-10-30T04:42:46;14.60;99.90
41447;DHT22;27185;52.040;4.490;2022-10-30T04:45:32;14.60;99.90
41447;DHT22;27185;52.040;4.490;2022-10-30T04:48:17;14.60;99.90
41447;DHT22;27185;52.040;4.490;2022-10-30T04:51:03;14.60;99.90
41447;DHT22;27185;52.040;4.490;2022-10-30T04:53:49;14.50;99.90
41447;DHT22;27185;52.040;4.490;2022-10-30T04:56:34;14.50;99.90
41447;DHT22;27185;52.040;4.490;2022-10-30T04:59:20;14.60;99.90
41447;DHT22;27185;52.040;4.490;2022-10-30T05:02:06;14.50;99.90
41447;DHT22;27185;52.040;4.490;2022-10-30T05:04:51;14.50;99.90
41447;DHT22;27185;52.040;4.490;2022-10-30T05:07:37;14.50;99.90
41447;DHT22;27185;52.040;4.490;2022-10-30T05:10:23;14.50;99.90
41447;DHT22;27185;52.040;4.490;2022-10-30T05:13:09;14.50;99.90
41447;DHT22;27185;52.040;4.490;2022-10-30T05:15:56;14.60;99.90
41447;DHT22;27185;52.040;4.490;2022-10-30T05:18:42;14.60;99.90
41447;DHT22;27185;52.040;4.490;2022-10-30T05:21:27;14.50;99.90
41447;DHT22;27185;52.040;4.490;2022-10-30T05:24:13;14.50;99.90
41447;DHT22;27185;52.040;4.490;2022-10-30T05:26:58;14.50;99.90
41447;DHT22;27185;52.040;4.490;2022-10-30T05:29:44;14.40;99.90
41447;DHT22;27185;52.040;4.490;2022-10-30T05:32:29;14.40;99.90
41447;DHT22;27185;52.040;4.490;2022-10-30T05:35:15;14.40;99.90
41447;DHT22;27185;52.040;4.490;2022-10-30T05:38:02;14.40;99.90
41447;DHT22;27185;52.040;4.490;2022-10-30T05:40:48;14.30;99.90
41447;DHT22;27185;52.040;4.490;2022-10-30T05:43:33;14.30;99.90
41447;DHT22;27185;52.040;4.490;2022-10-30T05:46:19;14.30;99.90
41447;DHT22;27185;52.040;4.490;2022-10-30T05:49:05;14.30;99.90
41447;DHT22;27185;52.040;4.490;2022-10-30T05:51:50;14.20;99.90
41447;DHT22;27185;52.040;4.490;2022-10-30T05:54:36;14.20;99.90
41447;DHT22;27185;52.040;4.490;2022-10-30T05:57:21;14.20;99.90
41447;DHT22;27185;52.040;4.490;2022-10-30T06:00:07;14.20;99.90
41447;DHT22;27185;52.040;4.490;2022-10-30T06:03:04;14.10;99.90
41447;DHT22;27185;52.040;4.490;2022-10-30T06:05:50;14.10;99.90
41447;DHT22;27185;52.040;4.490;2022-10-30T06:08:36;14.10;99.90
41447;DHT22;27185;52.040;4.490;2022-10-30T06:11:22;14.00;99.90
41447;DHT22;27185;52.040;4.490;2022-10-30T06:14:07;14.00;99.90
41447;DHT22;27185;52.040;4.490;2022-10-30T06:16:53;14.00;99.90
41447;DHT22;27185;52.040;4.490;2022-10-30T06:19:38;13.90;99.90
41447;DHT22;27185;52.040;4.490;2022-10-30T06:22:24;13.90;99.90
41447;DHT22;27185;52.040;4.490;2022-10-30T06:25:09;13.90;99.90
41447;DHT22;27185;52.040;4.490;2022-10-30T06:27:55;14.00;99.90
41447;DHT22;27185;52.040;4.490;2022-10-30T06:30:41;14.00;99.90
41447;DHT22;27185;52.040;4.490;2022-10-30T06:33:26;14.00;99.90
41447;DHT22;27185;52.040;4.490;2022-10-30T06:36:12;14.10;99.90
41447;DHT22;27185;52.040;4.490;2022-10-30T06:38:57;14.10;99.90
41447;DHT22;27185;52.040;4.490;2022-10-30T06:41:43;14.10;99.90
41447;DHT22;27185;52.040;4.490;2022-10-30T06:44:29;14.10;99.90
41447;DHT22;27185;52.040;4.490;2022-10-30T06:47:14;14.10;99.90
41447;DHT22;27185;52.040;4.490;2022-10-30T06:50:00;14.10;99.90
41447;DHT22;27185;52.040;4.490;2022-10-30T06:52:46;14.10;99.90
41447;DHT22;27185;52.040;4.490;2022-10-30T06:55:33;14.20;99.90
41447;DHT22;27185;52.040;4.490;2022-10-30T06:58:18;14.20;99.90
41447;DHT22;27185;52.040;4.490;2022-10-30T07:01:05;14.20;99.90
41447;DHT22;27185;52.040;4.490;2022-10-30T07:03:50;14.30;99.90
41447;DHT22;27185;52.040;4.490;2022-10-30T07:06:36;14.40;99.90
41447;DHT22;27185;52.040;4.490;2022-10-30T07:09:21;14.40;99.90
41447;DHT22;27185;52.040;4.490;2022-10-30T07:12:07;14.50;99.90
41447;DHT22;27185;52.040;4.490;2022-10-30T07:14:53;14.60;99.90
41447;DHT22;27185;52.040;4.490;2022-10-30T07:17:39;14.70;99.90
41447;DHT22;27185;52.040;4.490;2022-10-30T07:20:28;14.80;99.90
41447;DHT22;27185;52.040;4.490;2022-10-30T07:23:14;14.90;99.90
41447;DHT22;27185;52.040;4.490;2022-10-30T07:26:00;15.00;99.90
41447;DHT22;27185;52.040;4.490;2022-10-30T07:28:45;15.10;99.90
41447;DHT22;27185;52.040;4.490;2022-10-30T07:31:31;15.20;99.90
41447;DHT22;27185;52.040;4.490;2022-10-30T07:34:17;15.30;99.90
41447;DHT22;27185;52.040;4.490;2022-10-30T07:37:02;15.30;99.90
41447;DHT22;27185;52.040;4.490;2022-10-30T07:39:48;15.40;99.90
41447;DHT22;27185;52.040;4.490;2022-10-30T07:42:33;15.50;99.90
41447;DHT22;27185;52.040;4.490;2022-10-30T07:45:19;15.60;99.90
41447;DHT22;27185;52.040;4.490;2022-10-30T07:48:05;15.60;99.90
41447;DHT22;27185;52.040;4.490;2022-10-30T07:50:50;15.80;99.90
41447;DHT22;27185;52.040;4.490;2022-10-30T07:53:36;15.90;99.90
41447;DHT22;27185;52.040;4.490;2022-10-30T07:56:21;16.00;99.90
41447;DHT22;27185;52.040;4.490;2022-10-30T07:59:07;16.10;99.90
41447;DHT22;27185;52.040;4.490;2022-10-30T08:01:52;16.20;99.90
41447;DHT22;27185;52.040;4.490;2022-10-30T08:04:38;16.40;99.90
41447;DHT22;27185;52.040;4.490;2022-10-30T08:07:28;16.50;99.90
41447;DHT22;27185;52.040;4.490;2022-10-30T08:10:15;16.60;99.90
41447;DHT22;27185;52.040;4.490;2022-10-30T08:13:00;16.70;99.90
41447;DHT22;27185;52.040;4.490;2022-10-30T08:15:46;16.80;99.90
41447;DHT22;27185;52.040;4.490;2022-10-30T08:18:33;16.90;99.90
41447;DHT22;27185;52.040;4.490;2022-10-30T08:21:18;17.00;99.90
41447;DHT22;27185;52.040;4.490;2022-10-30T08:24:04;17.10;99.90
41447;DHT22;27185;52.040;4.490;2022-10-30T08:26:53;17.10;99.90
41447;DHT22;27185;52.040;4.490;2022-10-30T08:29:38;17.20;99.90
41447;DHT22;27185;52.040;4.490;2022-10-30T08:32:24;17.30;99.90
41447;DHT22;27185;52.040;4.490;2022-10-30T08:35:09;17.40;99.90
41447;DHT22;27185;52.040;4.490;2022-10-30T08:37:56;17.50;99.90
41447;DHT22;27185;52.040;4.490;2022-10-30T08:40:42;17.60;99.90
41447;DHT22;27185;52.040;4.490;2022-10-30T08:43:28;17.70;99.90
41447;DHT22;27185;52.040;4.490;2022-10-30T08:46:13;17.80;99.90
41447;DHT22;27185;52.040;4.490;2022-10-30T08:48:59;17.90;99.90
41447;DHT22;27185;52.040;4.490;2022-10-30T08:51:45;18.00;99.90
41447;DHT22;27185;52.040;4.490;2022-10-30T08:54:31;18.00;99.90
41447;DHT22;27185;52.040;4.490;2022-10-30T08:57:16;18.10;99.90
41447;DHT22;27185;52.040;4.490;2022-10-30T09:00:04;18.20;99.90
41447;DHT22;27185;52.040;4.490;2022-10-30T09:02:50;18.20;99.90
41447;DHT22;27185;52.040;4.490;2022-10-30T09:05:36;18.30;99.90
41447;DHT22;27185;52.040;4.490;2022-10-30T09:08:21;18.40;99.90
41447;DHT22;27185;52.040;4.490;2022-10-30T09:11:07;18.40;99.90
41447;DHT22;27185;52.040;4.490;2022-10-30T09:13:53;18.40;99.90
41447;DHT22;27185;52.040;4.490;2022-10-30T09:16:38;18.40;99.90
41447;DHT22;27185;52.040;4.490;2022-10-30T09:19:24;18.50;99.90
41447;DHT22;27185;52.040;4.490;2022-10-30T09:22:10;18.50;99.90
41447;DHT22;27185;52.040;4.490;2022-10-30T09:24:55;18.60;99.90
41447;DHT22;27185;52.040;4.490;2022-10-30T09:27:41;18.60;99.90
41447;DHT22;27185;52.040;4.490;2022-10-30T09:30:26;18.70;99.90
41447;DHT22;27185;52.040;4.490;2022-10-30T09:33:12;18.70;99.90
41447;DHT22;27185;52.040;4.490;2022-10-30T09:35:58;18.80;99.90
41447;DHT22;27185;52.040;4.490;2022-10-30T09:38:43;18.80;99.90
41447;DHT22;27185;52.040;4.490;2022-10-30T09:51:14;19.20;99.90
41447;DHT22;27185;52.040;4.490;2022-10-30T09:54:23;19.40;99.90
41447;DHT22;27185;52.040;4.490;2022-10-30T09:57:38;19.50;99.90
41447;DHT22;27185;52.040;4.490;2022-10-30T10:00:35;19.60;99.90
41447;DHT22;27185;52.040;4.490;2022-10-30T10:06:14;19.70;99.90
41447;DHT22;27185;52.040;4.490;2022-10-30T10:09:19;19.80;99.90
41447;DHT22;27185;52.040;4.490;2022-10-30T10:12:10;20.00;99.90
41447;DHT22;27185;52.040;4.490;2022-10-30T10:14:59;20.00;99.90
41447;DHT22;27185;52.040;4.490;2022-10-30T10:17:47;20.00;99.90
41447;DHT22;27185;52.040;4.490;2022-10-30T10:20:37;20.10;99.90
41447;DHT22;27185;52.040;4.490;2022-10-30T10:23:35;20.20;99.90
41447;DHT22;27185;52.040;4.490;2022-10-30T10:30:12;20.30;99.90
41447;DHT22;27185;52.040;4.490;2022-10-30T10:39:38;20.50;99.90
41447;DHT22;27185;52.040;4.490;2022-10-30T10:42:43;20.60;99.90
41447;DHT22;27185;52.040;4.490;2022-10-30T10:46:04;20.70;99.90
41447;DHT22;27185;52.040;4.490;2022-10-30T10:51:47;20.90;99.90
41447;DHT22;27185;52.040;4.490;2022-10-30T10:54:42;20.90;99.90
41447;DHT22;27185;52.040;4.490;2022-10-30T10:57:33;21.10;99.90
41447;DHT22;27185;52.040;4.490;2022-10-30T11:00:21;21.20;99.90
41447;DHT22;27185;52.040;4.490;2022-10-30T11:03:15;21.20;99.90
41447;DHT22;27185;52.040;4.490;2022-10-30T11:06:18;21.30;99.70
41447;DHT22;27185;52.040;4.490;2022-10-30T11:09:24;21.40;99.90
41447;DHT22;27185;52.040;4.490;2022-10-30T11:12:11;21.50;99.90
41447;DHT22;27185;52.040;4.490;2022-10-30T11:14:57;21.60;99.90
41447;DHT22;27185;52.040;4.490;2022-10-30T11:18:01;21.70;99.90
41447;DHT22;27185;52.040;4.490;2022-10-30T11:20:58;21.80;99.90
41447;DHT22;27185;52.040;4.490;2022-10-30T11:23:46;21.90;99.80
41447;DHT22;27185;52.040;4.490;2022-10-30T11:26:33;21.90;99.90
41447;DHT22;27185;52.040;4.490;2022-10-30T11:29:23;22.00;99.90
41447;DHT22;27185;52.040;4.490;2022-10-30T11:32:18;22.10;99.50
41447;DHT22;27185;52.040;4.490;2022-10-30T11:38:15;22.20;99.60
41447;DHT22;27185;52.040;4.490;2022-10-30T11:41:02;22.20;97.90
41447;DHT22;27185;52.040;4.490;2022-10-30T11:43:48;22.30;99.10
41447;DHT22;27185;52.040;4.490;2022-10-30T11:46:34;22.30;99.10
41447;DHT22;27185;52.040;4.490;2022-10-30T11:49:48;22.30;99.00
41447;DHT22;27185;52.040;4.490;2022-10-30T11:52:39;22.40;98.20
41447;DHT22;27185;52.040;4.490;2022-10-30T11:55:46;22.40;98.40
41447;DHT22;27185;52.040;4.490;2022-10-30T11:58:37;22.50;97.40
41447;DHT22;27185;52.040;4.490;2022-10-30T12:01:29;22.50;98.00
41447;DHT22;27185;52.040;4.490;2022-10-30T12:04:24;22.50;98.00
41447;DHT22;27185;52.040;4.490;2022-10-30T12:10:29;22.50;97.20
41447;DHT22;27185;52.040;4.490;2022-10-30T12:13:17;22.40;96.60
41447;DHT22;27185;52.040;4.490;2022-10-30T12:16:15;22.40;97.80
41447;DHT22;27185;52.040;4.490;2022-10-30T12:19:10;22.40;97.10
41447;DHT22;27185;52.040;4.490;2022-10-30T12:21:59;22.30;97.30
41447;DHT22;27185;52.040;4.490;2022-10-30T12:24:48;22.40;98.00
41447;DHT22;27185;52.040;4.490;2022-10-30T12:27:36;22.30;97.70
41447;DHT22;27185;52.040;4.490;2022-10-30T12:30:23;22.30;97.40
41447;DHT22;27185;52.040;4.490;2022-10-30T12:36:21;22.30;97.20
41447;DHT22;27185;52.040;4.490;2022-10-30T12:39:12;22.30;97.50
41447;DHT22;27185;52.040;4.490;2022-10-30T12:42:10;22.30;97.70
41447;DHT22;27185;52.040;4.490;2022-10-30T12:45:17;22.20;97.40
41447;DHT22;27185;52.040;4.490;2022-10-30T12:48:29;22.30;97.20
41447;DHT22;27185;52.040;4.490;2022-10-30T12:51:33;22.20;97.30
41447;DHT22;27185;52.040;4.490;2022-10-30T13:00:16;22.30;97.70
41447;DHT22;27185;52.040;4.490;2022-10-30T13:06:18;22.30;96.80
41447;DHT22;27185;52.040;4.490;2022-10-30T13:12:05;22.40;97.80
41447;DHT22;27185;52.040;4.490;2022-10-30T13:14:55;22.40;97.20
41447;DHT22;27185;52.040;4.490;2022-10-30T13:17:42;22.50;97.50
41447;DHT22;27185;52.040;4.490;2022-10-30T13:20:29;22.50;97.70
41447;DHT22;27185;52.040;4.490;2022-10-30T13:23:25;22.50;97.50
41447;DHT22;27185;52.040;4.490;2022-10-30T13:26:57;22.60;97.40
41447;DHT22;27185;52.040;4.490;2022-10-30T13:30:03;22.60;96.50
41447;DHT22;27185;52.040;4.490;2022-10-30T13:33:02;22.70;96.70
41447;DHT22;27185;52.040;4.490;2022-10-30T13:36:27;22.80;97.10
41447;DHT22;27185;52.040;4.490;2022-10-30T13:39:38;22.90;96.00
41447;DHT22;27185;52.040;4.490;2022-10-30T13:45:44;23.30;95.60
41447;DHT22;27185;52.040;4.490;2022-10-30T13:51:54;23.20;94.70
41447;DHT22;27185;52.040;4.490;2022-10-30T13:55:09;23.10;95.50
41447;DHT22;27185;52.040;4.490;2022-10-30T13:58:14;22.90;95.20
41447;DHT22;27185;52.040;4.490;2022-10-30T14:01:19;22.70;96.20
41447;DHT22;27185;52.040;4.490;2022-10-30T14:04:11;22.60;96.00
41447;DHT22;27185;52.040;4.490;2022-10-30T14:19:17;21.80;97.20
41447;DHT22;27185;52.040;4.490;2022-10-30T14:22:03;21.60;97.30
41447;DHT22;27185;52.040;4.490;2022-10-30T14:24:48;21.50;97.40
41447;DHT22;27185;52.040;4.490;2022-10-30T14:27:34;21.40;97.50
41447;DHT22;27185;52.040;4.490;2022-10-30T14:30:20;21.30;97.60
41447;DHT22;27185;52.040;4.490;2022-10-30T14:42:52;20.90;97.70
41447;DHT22;27185;52.040;4.490;2022-10-30T14:45:24;20.90;97.60
41447;DHT22;27185;52.040;4.490;2022-10-30T14:48:22;20.80;97.70
41447;DHT22;27185;52.040;4.490;2022-10-30T14:51:32;20.70;97.90
41447;DHT22;27185;52.040;4.490;2022-10-30T14:54:27;20.60;98.10
41447;DHT22;27185;52.040;4.490;2022-10-30T14:57:51;20.60;98.30
41447;DHT22;27185;52.040;4.490;2022-10-30T15:00:39;20.50;98.40
41447;DHT22;27185;52.040;4.490;2022-10-30T15:04:00;20.40;98.60
41447;DHT22;27185;52.040;4.490;2022-10-30T15:07:07;20.40;98.80
41447;DHT22;27185;52.040;4.490;2022-10-30T15:10:32;20.30;99.10
41447;DHT22;27185;52.040;4.490;2022-10-30T15:13:20;20.30;99.50
41447;DHT22;27185;52.040;4.490;2022-10-30T15:16:07;20.20;99.50
41447;DHT22;27185;52.040;4.490;2022-10-30T15:19:04;20.10;99.60
41447;DHT22;27185;52.040;4.490;2022-10-30T15:21:54;20.00;99.60
41447;DHT22;27185;52.040;4.490;2022-10-30T15:24:40;20.00;99.60
41447;DHT22;27185;52.040;4.490;2022-10-30T15:27:26;19.90;99.70
41447;DHT22;27185;52.040;4.490;2022-10-30T15:30:20;19.90;99.70
41447;DHT22;27185;52.040;4.490;2022-10-30T15:33:19;19.80;99.60
41447;DHT22;27185;52.040;4.490;2022-10-30T15:42:00;19.70;99.90
41447;DHT22;27185;52.040;4.490;2022-10-30T15:44:46;19.70;99.90
41447;DHT22;27185;52.040;4.490;2022-10-30T15:47:32;19.60;99.90
41447;DHT22;27185;52.040;4.490;2022-10-30T15:50:18;19.60;99.90
41447;DHT22;27185;52.040;4.490;2022-10-30T15:53:13;19.60;99.90
41447;DHT22;27185;52.040;4.490;2022-10-30T15:56:00;19.50;99.90
41447;DHT22;27185;52.040;4.490;2022-10-30T15:58:51;19.50;99.90
41447;DHT22;27185;52.040;4.490;2022-10-30T16:01:43;19.50;99.90
41447;DHT22;27185;52.040;4.490;2022-10-30T16:04:31;19.50;99.90
41447;DHT22;27185;52.040;4.490;2022-10-30T16:07:22;19.40;99.90
41447;DHT22;27185;52.040;4.490;2022-10-30T16:10:09;19.40;99.90
41447;DHT22;27185;52.040;4.490;2022-10-30T16:12:56;19.30;99.90
41447;DHT22;27185;52.040;4.490;2022-10-30T16:15:43;19.30;99.90
41447;DHT22;27185;52.040;4.490;2022-10-30T16:18:33;19.20;99.90
41447;DHT22;27185;52.040;4.490;2022-10-30T16:21:21;19.20;99.90
41447;DHT22;27185;52.040;4.490;2022-10-30T16:24:08;19.10;99.90
41447;DHT22;27185;52.040;4.490;2022-10-30T16:27:05;19.10;99.90
41447;DHT22;27185;52.040;4.490;2022-10-30T16:29:54;19.10;99.90
41447;DHT22;27185;52.040;4.490;2022-10-30T16:32:43;19.00;99.90
41447;DHT22;27185;52.040;4.490;2022-10-30T16:35:30;19.00;99.90
41447;DHT22;27185;52.040;4.490;2022-10-30T16:38:17;19.00;99.90
41447;DHT22;27185;52.040;4.490;2022-10-30T16:41:05;19.00;99.90
41447;DHT22;27185;52.040;4.490;2022-10-30T16:44:16;19.00;99.90
41447;DHT22;27185;52.040;4.490;2022-10-30T16:50:04;18.90;99.90
41447;DHT22;27185;52.040;4.490;2022-10-30T16:52:50;18.90;99.90
41447;DHT22;27185;52.040;4.490;2022-10-30T16:55:36;18.90;99.90
41447;DHT22;27185;52.040;4.490;2022-10-30T16:58:25;18.80;99.90
41447;DHT22;27185;52.040;4.490;2022-10-30T17:01:12;18.80;99.90
41447;DHT22;27185;52.040;4.490;2022-10-30T17:03:58;18.80;99.90
41447;DHT22;27185;52.040;4.490;2022-10-30T17:06:44;18.80;99.90
41447;DHT22;27185;52.040;4.490;2022-10-30T17:09:34;18.70;99.90
41447;DHT22;27185;52.040;4.490;2022-10-30T17:12:28;18.70;99.90
41447;DHT22;27185;52.040;4.490;2022-10-30T17:15:14;18.70;99.90
41447;DHT22;27185;52.040;4.490;2022-10-30T17:18:15;18.70;99.90
41447;DHT22;27185;52.040;4.490;2022-10-30T17:21:07;18.60;99.90
41447;DHT22;27185;52.040;4.490;2022-10-30T17:23:56;18.60;99.90
41447;DHT22;27185;52.040;4.490;2022-10-30T17:26:56;18.60;99.90
41447;DHT22;27185;52.040;4.490;2022-10-30T17:29:42;18.50;99.90
41447;DHT22;27185;52.040;4.490;2022-10-30T17:32:41;18.50;99.90
41447;DHT22;27185;52.040;4.490;2022-10-30T17:35:27;18.40;99.90
41447;DHT22;27185;52.040;4.490;2022-10-30T17:38:13;18.40;99.90
41447;DHT22;27185;52.040;4.490;2022-10-30T17:40:59;18.30;99.90
41447;DHT22;27185;52.040;4.490;2022-10-30T17:43:51;18.30;99.90
41447;DHT22;27185;52.040;4.490;2022-10-30T17:46:37;18.30;99.90
41447;DHT22;27185;52.040;4.490;2022-10-30T17:49:27;18.20;99.90
41447;DHT22;27185;52.040;4.490;2022-10-30T17:52:17;18.20;99.90
41447;DHT22;27185;52.040;4.490;2022-10-30T17:55:23;18.20;99.90
41447;DHT22;27185;52.040;4.490;2022-10-30T17:58:09;18.20;99.90
41447;DHT22;27185;52.040;4.490;2022-10-30T18:00:57;18.10;99.90
41447;DHT22;27185;52.040;4.490;2022-10-30T18:03:42;18.10;99.90
41447;DHT22;27185;52.040;4.490;2022-10-30T18:06:28;18.10;99.90
41447;DHT22;27185;52.040;4.490;2022-10-30T18:09:14;18.10;99.90
41447;DHT22;27185;52.040;4.490;2022-10-30T18:11:59;18.00;99.90
41447;DHT22;27185;52.040;4.490;2022-10-30T18:14:45;18.00;99.90
41447;DHT22;27185;52.040;4.490;2022-10-30T18:17:30;17.90;99.90
41447;DHT22;27185;52.040;4.490;2022-10-30T18:20:16;17.90;99.90
41447;DHT22;27185;52.040;4.490;2022-10-30T18:23:02;17.90;99.90
41447;DHT22;27185;52.040;4.490;2022-10-30T18:25:49;17.80;99.90
41447;DHT22;27185;52.040;4.490;2022-10-30T18:28:35;17.80;99.90
41447;DHT22;27185;52.040;4.490;2022-10-30T18:31:22;17.70;99.90
41447;DHT22;27185;52.040;4.490;2022-10-30T18:34:14;17.60;99.90
41447;DHT22;27185;52.040;4.490;2022-10-30T18:37:00;17.50;99.90
41447;DHT22;27185;52.040;4.490;2022-10-30T18:39:46;17.50;99.90
41447;DHT22;27185;52.040;4.490;2022-10-30T18:42:31;17.40;99.90
41447;DHT22;27185;52.040;4.490;2022-10-30T18:45:31;17.40;99.90
41447;DHT22;27185;52.040;4.490;2022-10-30T18:48:17;17.30;99.90
41447;DHT22;27185;52.040;4.490;2022-10-30T18:51:04;17.20;99.90
41447;DHT22;27185;52.040;4.490;2022-10-30T18:53:50;17.10;99.90
41447;DHT22;27185;52.040;4.490;2022-10-30T18:56:36;17.10;99.90
41447;DHT22;27185;52.040;4.490;2022-10-30T18:59:21;17.00;99.90
41447;DHT22;27185;52.040;4.490;2022-10-30T19:02:19;17.00;99.90
41447;DHT22;27185;52.040;4.490;2022-10-30T19:08:01;16.90;99.90
41447;DHT22;27185;52.040;4.490;2022-10-30T19:10:47;16.80;99.90
41447;DHT22;27185;52.040;4.490;2022-10-30T19:13:33;16.70;99.90
41447;DHT22;27185;52.040;4.490;2022-10-30T19:16:19;16.70;99.90
41447;DHT22;27185;52.040;4.490;2022-10-30T19:19:06;16.60;99.90
41447;DHT22;27185;52.040;4.490;2022-10-30T19:21:51;16.60;99.90
41447;DHT22;27185;52.040;4.490;2022-10-30T19:24:39;16.60;99.90
41447;DHT22;27185;52.040;4.490;2022-10-30T19:27:25;16.60;99.90
41447;DHT22;27185;52.040;4.490;2022-10-30T19:30:11;16.60;99.90
41447;DHT22;27185;52.040;4.490;2022-10-30T19:32:57;16.50;99.90
41447;DHT22;27185;52.040;4.490;2022-10-30T19:35:42;16.50;99.90
41447;DHT22;27185;52.040;4.490;2022-10-30T19:38:28;16.50;99.90
41447;DHT22;27185;52.040;4.490;2022-10-30T19:41:15;16.40;99.90